CFMD toutes catégorie Fameck - Ranguevaux (57) - Hbis

Date : 04/06/2011
Distance : 3,200 km

Place Nom Licence Catégorie Club Temps min/km CN à J-60 Points Différence Nouveau CN
1 CLOUARD Lucile 8551 D16 7807IF 0:25:30 7'58 4982 5196 +214 5294
2 DEVRIEUX Naïs 7672 D16 4203RA 0:26:54 8'24 4394 4926 +532 5087
3 HUMMEL-AZAIS Margaux 18432 D16 7403RA 0:28:37 8'56 4653 4630 -23 5217
4 BODY Mathilde 10184 D16 7305RA 0:28:41 8'57 4107 4620 +513 4751
5 BOULESTREAU Zélie 11309 D16 2904BR 0:30:29 9'31 5611 4347 -1264 6022
6 POIROT Delphine 15979 D16 8809LO 0:31:00 9'41 5547 4274 -1273 5808
7 LUTHRINGER Coline 10091 D16 8809LO 0:31:29 9'50 3263 4209 +946 3981
8 HABERKORN Chloé 10396 D16 2105BO 0:32:51 10'15 4277 4034 -243 5340
9 KORCHAK Nathalie 13638 D16 6806AL 0:33:55 10'35 3837 3907 +70 3953
10 TREPTEL Solene 17433 D16 9105IF 0:34:01 10'37 3461 3895 +434 3617
11 PETER-JAN Lucile 19276 D16 3705CE 0:34:20 10'43 3678 3859 +181 4024
12 MAISONNEUVE Valentine 16357 D16 4203RA 0:34:53 10'54 3797 3799 +2 4499
13 VANOVERBERGHE Camille 21323 D16 6208NO 0:34:56 10'55 4227 3793 -434 4816
14 DENAIX Lou 7711 D16 7403RA 0:36:06 11'16 4432 3670 -762 4798
15 DUQUENNE Audrey 23885 D16 5907NO 0:36:33 11'25 2459 3625 +1166 3371
16 LEPERQUE Ophelie 20200 D16 6208NO 0:37:02 11'34 3789 3578 -211 4450
17 ROULLEAUX Julie 11559 D16 9105IF 0:37:09 11'36 4313 3567 -746 4466
18 BACHER Amelie 10072 D16 2517FC 0:37:10 11'36 3428 3565 +137 3495
19 MORLON Louise 7788 D16 5702LO 0:37:12 11'37 3718 3562 -156 3780
20 BISSIERE Camille 19486 D16 4709AQ 0:37:16 11'38 3363 3556 +193 3710
21 ALAFORT Lucie 22475 D16 5116CA 0:37:30 11'43 3178 3533 +355 2951
22 RIETHMULLER Mathilde 19219 D16 6806AL 0:37:50 11'49 3853 3502 -351 3853
23 DODIER Orianne 10485 D16 8405PR 0:38:39 12'04 2816 3428 +612 3159
24 BASSET Fiona 23384 D16 6911RA 0:39:17 12'16 2394 3373 +979 3065
25 VERNOTTE Justine 23633 D16 1905LI 0:40:04 12'31 2214 3307 +1093 2627
26 RIVOLLIER Isaline 22451 D16 4201RA 0:40:20 12'36 2530 3285 +755 3434
27 VERDIN Alix 15276 D16 7109BO 0:41:16 12'53 3457 3211 -246 3734
28 AMET Marion 14575 D16 8809LO 0:41:26 12'56 3873 3198 -675 4318
29 GIRARD Lucille 19689 D16 3705CE 0:41:28 12'57 3742 3195 -547 4351
30 MINET Clémence 23609 D16 6208NO 0:41:46 13'03 2473 3172 +699 2793
31 DUTERAGE Marie 20386 D16 7807IF 0:41:47 13'03 2348 3171 +823 2529
32 BORNARD Julie 9402 D16 7305RA 0:41:59 13'07 3166 3156 -10 3334
33 MAURIES Alice 24190 D16 8105MP 0:42:58 13'25 0 3084 2444
34 BESTEL Sandra 10758 D16 9105IF 0:43:30 13'35 2913 3046 +133 3078
35 MOUYON Elisa 20101 D16 2606RA 0:43:39 13'38 3881 3036 -845 3652
36 MOLINIER Caroline 6487 D16 9105IF 0:43:50 13'41 3556 3023 -533 3576
37 FALGA Beatrice 12403 D16 6911RA 0:44:01 13'45 2513 3010 +497 3103
38 CAMAS Mandye 19238 D16 5907NO 0:44:19 13'50 3774 2990 -784 4464
39 GUILMAIN Melanie 20572 D16 6208NO 0:44:29 13'54 3956 2979 -977 4003
40 TEGNY Laurine 23659 D16 6205NO 0:44:44 13'58 1821 2962 +1141 2535
41 GUILLOT Jeanne 20364 D16 7004FC 0:46:29 14'31 2484 2851 +367 2779
42 GOURLAIN Mathilde 18299 D16 6205NO 0:46:37 14'34 3721 2842 -879 3703
43 PELUSO Severine 9506 D16 8405PR 0:47:27 14'49 2870 2793 -77 2870
44 DEBARBIEUX Julie 24574 D16 2108BO 0:47:32 14'51 2788 2375
45 DELAPORTE Léa 20067 D16 5116CA 0:47:45 14'55 2314 2775 +461 2853
46 BULLIER Alisson 23427 D16 0207PI 0:49:20 15'25 2528 2686 +158 2682
47 LECOEUCHE Charlotte 22216 D16 5906NO 0:51:40 16'08 1870 2565 +695 2486
48 TRESSOL Ludivine 20533 D16 4704AQ 0:52:08 16'17 2879 2542 -337 2929
49 BERCHE Léa 24420 D16 5907NO 0:52:28 16'23 2040 2526 +486 2396
50 VIRETTO CIT Céline 20864 D16 9105IF 0:52:57 16'32 2720 2502 -218 2435
51 PARENT Mathilde 22250 D16 6208NO 0:53:34 16'44 2504 2474 -30 2532
52 BEN YOUNES Rym 24001 D16 2517FC 0:53:45 16'47 2465 2366
53 CRETE Camille 18828 D16 6008PI 0:59:17 18'31 2781 2235 -546 2741
54 SEMBACH Lauriane 19221 D16 6806AL 0:59:43 18'39 2794 2219 -575 2873
55 BOUVRESSE Deborah 23940 D16 2517FC 1:01:32 19'13 2153 2067
56 DESNOUS Coraline 24846 D16 4504CE 1:04:46 20'14 2046 1923
57 FALCOZ Estelle 20410 D16 7305RA 1:04:46 20'14 3619 2046 -1573 3272
58 PINZELLI Tamara 23551 D16 1905LI 1:06:28 20'46 2052 1994 -58 2172
59 BOUQUEREAU Morgane 20869 D16 9105IF 1:07:08 20'58 3189 1974 -1215 3189
60 FENEUIL Coralie 15586 D16 5101CA 1:13:28 22'57 1753 1804 +51 2237
61 D'HARBOULLE Camille 24592 D16 7707IF 1:15:39 23'38 1617 1752 +135 1667
62 JASTRZEBSKI Chloé 23790 D16 4203RA 1:19:18 24'46 1671 2002